createdAt,value
2022-10-01T00:01:19.319Z,98444.66
2022-10-01T00:03:47.602Z,98448.66
2022-10-01T00:06:17.603Z,98445.31
2022-10-01T00:08:49.252Z,98445.63
2022-10-01T00:11:26.339Z,98443.97
2022-10-01T00:13:54.293Z,98446.44
2022-10-01T00:16:26.008Z,98450.13
2022-10-01T00:18:54.290Z,98454.41
2022-10-01T00:21:23.113Z,98440.91
2022-10-01T00:23:55.795Z,98433.94
2022-10-01T00:26:25.989Z,98435.56
2022-10-01T00:29:10.227Z,98442.38
2022-10-01T00:31:37.669Z,98437.88
2022-10-01T00:34:04.915Z,98435.75
2022-10-01T00:36:32.518Z,98433.84
2022-10-01T00:39:00.428Z,98445.50
2022-10-01T00:41:29.613Z,98446.06
2022-10-01T00:43:59.454Z,98459.53
2022-10-01T00:46:38.860Z,98458.19
2022-10-01T00:49:20.531Z,98457.84
2022-10-01T00:51:55.194Z,98465.84
2022-10-01T00:54:33.255Z,98465.53
2022-10-01T00:57:02.444Z,98465.28
2022-10-01T00:59:30.056Z,98457.84
2022-10-01T01:01:56.784Z,98457.84
2022-10-01T01:04:23.324Z,98457.16
2022-10-01T01:06:57.505Z,98455.31
2022-10-01T01:09:30.863Z,98449.47
2022-10-01T01:12:18.515Z,98453.66
2022-10-01T01:15:10.312Z,98453.66
2022-10-01T01:17:56.066Z,98451.16
2022-10-01T01:20:44.721Z,98443.38
2022-10-01T01:23:29.292Z,98443.16
2022-10-01T01:26:04.837Z,98445.81
2022-10-01T01:28:37.787Z,98437.34
2022-10-01T01:31:14.291Z,98428.66
2022-10-01T01:33:43.760Z,98426.84
2022-10-01T01:36:17.058Z,98427.53
2022-10-01T01:38:49.750Z,98416.34
2022-10-01T01:41:18.956Z,98413.53
2022-10-01T01:43:48.585Z,98406.06
2022-10-01T01:46:18.661Z,98407.19
2022-10-01T01:48:47.469Z,98404.41
2022-10-01T01:51:20.268Z,98403.53
2022-10-01T01:53:46.819Z,98391.22
2022-10-01T01:56:14.081Z,98381.75
2022-10-01T01:58:40.689Z,98379.75
2022-10-01T02:01:07.087Z,98380.25
2022-10-01T02:03:35.211Z,98377.63
2022-10-01T02:06:31.034Z,98374.97
2022-10-01T02:09:05.455Z,98374.34
2022-10-01T02:11:38.096Z,98368.91
2022-10-01T02:14:21.175Z,98362.41
2022-10-01T02:17:01.364Z,98370.56
2022-10-01T02:19:56.039Z,98361.19
2022-10-01T02:22:43.202Z,98363.19
2022-10-01T02:25:13.106Z,98347.22
2022-10-01T02:27:59.139Z,98348.94
2022-10-01T02:30:27.476Z,98351.88
2022-10-01T02:32:58.849Z,98354.19
2022-10-01T02:35:28.527Z,98343.47
2022-10-01T02:37:56.451Z,98328.50
2022-10-01T02:40:26.960Z,98335.53
2022-10-01T02:42:56.444Z,98332.63
2022-10-01T02:45:26.221Z,98337.84
2022-10-01T02:48:16.709Z,98336.31
2022-10-01T02:50:55.068Z,98333.09
2022-10-01T02:53:39.692Z,98329.84
2022-10-01T02:56:08.440Z,98334.66
2022-10-01T02:58:36.290Z,98326.03
2022-10-01T03:01:03.637Z,98325.47
2022-10-01T03:03:32.316Z,98327.16
2022-10-01T03:05:58.803Z,98330.66
2022-10-01T03:08:25.225Z,98337.50
2022-10-01T03:10:51.805Z,98344.34
2022-10-01T03:13:19.838Z,98336.47
2022-10-01T03:15:47.100Z,98330.59
2022-10-01T03:18:13.636Z,98338.16
2022-10-01T03:20:40.078Z,98335.09
2022-10-01T03:23:07.613Z,98336.97
2022-10-01T03:25:34.083Z,98338.63
2022-10-01T03:28:00.826Z,98350.56
2022-10-01T03:30:27.393Z,98329.38
2022-10-01T03:32:53.807Z,98341.44
2022-10-01T03:35:20.692Z,98339.38
2022-10-01T03:37:47.629Z,98343.25
2022-10-01T03:40:14.672Z,98342.13
2022-10-01T03:42:41.133Z,98332.13
2022-10-01T03:45:08.141Z,98332.41
2022-10-01T03:47:34.820Z,98336.16
2022-10-01T03:50:01.453Z,98337.53
2022-10-01T03:52:27.739Z,98337.69
2022-10-01T03:54:54.117Z,98332.41
2022-10-01T03:57:20.481Z,98327.06
2022-10-01T03:59:46.905Z,98336.63
2022-10-01T04:02:13.579Z,98340.09
2022-10-01T04:04:40.042Z,98339.34
2022-10-01T04:07:06.486Z,98335.50
2022-10-01T04:09:32.886Z,98339.22
2022-10-01T04:11:59.709Z,98330.78
2022-10-01T04:14:26.401Z,98342.53
2022-10-01T04:16:52.812Z,98322.38
2022-10-01T04:19:20.251Z,98318.66
2022-10-01T04:21:46.698Z,98322.31
2022-10-01T04:24:13.077Z,98316.50
2022-10-01T04:26:39.519Z,98326.47
2022-10-01T04:29:06.053Z,98321.94
2022-10-01T04:31:35.262Z,98320.13
2022-10-01T04:34:02.585Z,98319.88
2022-10-01T04:36:29.073Z,98322.88
2022-10-01T04:39:00.887Z,98319.53
2022-10-01T04:41:30.659Z,98334.09
2022-10-01T04:43:59.727Z,98332.44
2022-10-01T04:46:26.556Z,98333.31
2022-10-01T04:48:53.041Z,98314.94
2022-10-01T04:51:20.811Z,98316.34
2022-10-01T04:53:47.454Z,98332.78
2022-10-01T04:56:13.781Z,98320.63
2022-10-01T04:58:41.416Z,98311.06
2022-10-01T05:01:08.069Z,98309.00
2022-10-01T05:03:34.633Z,98303.28
2022-10-01T05:06:02.264Z,98304.28
2022-10-01T05:08:29.241Z,98301.97
2022-10-01T05:10:55.827Z,98316.06
2022-10-01T05:13:22.317Z,98313.59
2022-10-01T05:15:52.122Z,98304.09
2022-10-01T05:18:19.093Z,98294.63
2022-10-01T05:20:45.834Z,98297.31
2022-10-01T05:23:12.336Z,98312.81
2022-10-01T05:25:40.490Z,98317.38
2022-10-01T05:28:06.943Z,98312.41
2022-10-01T05:30:34.406Z,98311.16
2022-10-01T05:33:03.331Z,98309.47
2022-10-01T05:35:30.321Z,98306.97
2022-10-01T05:38:02.629Z,98314.31
2022-10-01T05:40:30.633Z,98315.75
2022-10-01T05:42:58.498Z,98324.19
2022-10-01T05:45:28.210Z,98327.41
2022-10-01T05:48:03.709Z,98315.69
2022-10-01T05:50:32.997Z,98324.91
2022-10-01T05:53:00.817Z,98330.78
2022-10-01T05:55:32.425Z,98313.38
2022-10-01T05:58:10.378Z,98326.94
2022-10-01T06:00:38.868Z,98315.09
2022-10-01T06:03:06.808Z,98319.25
2022-10-01T06:05:34.717Z,98301.47
2022-10-01T06:08:01.560Z,98324.19
2022-10-01T06:10:30.473Z,98321.03
2022-10-01T06:13:01.799Z,98324.66
2022-10-01T06:15:29.036Z,98314.06
2022-10-01T06:17:56.024Z,98343.97
2022-10-01T06:20:24.016Z,98340.00
2022-10-01T06:22:55.944Z,98352.38
2022-10-01T06:25:23.188Z,98354.63
2022-10-01T06:27:57.809Z,98344.44
2022-10-01T06:30:29.275Z,98333.75
2022-10-01T06:33:06.520Z,98317.06
2022-10-01T06:35:34.454Z,98325.91
2022-10-01T06:38:01.771Z,98329.78
2022-10-01T06:40:32.449Z,98323.66
2022-10-01T06:42:59.566Z,98320.06
2022-10-01T06:45:27.478Z,98325.88
2022-10-01T06:48:03.483Z,98317.44
2022-10-01T06:50:34.615Z,98318.75
2022-10-01T06:53:03.474Z,98320.78
2022-10-01T06:55:32.665Z,98316.06
2022-10-01T06:58:05.276Z,98313.75
2022-10-01T07:00:34.832Z,98291.75
2022-10-01T07:03:03.633Z,98296.75
2022-10-01T07:05:30.911Z,98298.13
2022-10-01T07:07:57.416Z,98300.44
2022-10-01T07:10:25.430Z,98306.75
2022-10-01T07:12:52.375Z,98310.78
2022-10-01T07:15:21.107Z,98308.00
2022-10-01T07:17:50.259Z,98316.53
2022-10-01T07:20:18.591Z,98305.63
2022-10-01T07:22:46.905Z,98308.84
2022-10-01T07:25:14.251Z,98315.50
2022-10-01T07:27:40.941Z,98297.81
2022-10-01T07:30:08.389Z,98306.13
2022-10-01T07:32:35.493Z,98317.72
2022-10-01T07:35:05.934Z,98314.75
2022-10-01T07:37:33.396Z,98309.78
2022-10-01T07:40:03.138Z,98316.53
2022-10-01T07:42:33.049Z,98325.59
2022-10-01T07:45:00.589Z,98319.22
2022-10-01T07:47:27.032Z,98307.78
2022-10-01T07:49:53.436Z,98311.47
2022-10-01T07:52:20.237Z,98323.28
2022-10-01T07:54:48.016Z,98313.94
2022-10-01T07:57:15.237Z,98319.41
2022-10-01T07:59:43.487Z,98315.50
2022-10-01T08:02:17.785Z,98318.50
2022-10-01T08:05:04.444Z,98317.38
2022-10-01T08:07:32.113Z,98321.44
2022-10-01T08:09:58.751Z,98300.75
2022-10-01T08:12:28.256Z,98320.78
2022-10-01T08:14:56.067Z,98297.91
2022-10-01T08:17:28.556Z,98311.25
2022-10-01T08:19:56.124Z,98309.97
2022-10-01T08:22:22.693Z,98308.59
2022-10-01T08:24:50.263Z,98310.34
2022-10-01T08:27:17.061Z,98297.84
2022-10-01T08:29:49.656Z,98303.63
2022-10-01T08:32:16.347Z,98297.13
2022-10-01T08:34:42.964Z,98303.28
2022-10-01T08:37:09.554Z,98293.28
2022-10-01T08:39:37.198Z,98282.44
2022-10-01T08:42:12.969Z,98318.72
2022-10-01T08:44:45.198Z,98291.06
2022-10-01T08:47:31.369Z,98316.69
2022-10-01T08:50:02.976Z,98309.28
2022-10-01T08:52:37.425Z,98312.84
2022-10-01T08:55:24.508Z,98318.41
2022-10-01T08:58:01.859Z,98303.19
2022-10-01T09:00:32.008Z,98311.72
2022-10-01T09:03:01.229Z,98308.63
2022-10-01T09:05:48.185Z,98320.03
2022-10-01T09:08:20.997Z,98311.34
2022-10-01T09:10:54.645Z,98316.69
2022-10-01T09:13:43.372Z,98317.16
2022-10-01T09:16:24.690Z,98316.19
2022-10-01T09:19:06.461Z,98329.63
2022-10-01T09:22:26.194Z,98330.25
2022-10-01T09:25:11.539Z,98326.03
2022-10-01T09:27:38.592Z,98316.59
2022-10-01T09:30:14.021Z,98309.03
2022-10-01T09:32:56.637Z,98325.66
2022-10-01T09:35:37.681Z,98308.19
2022-10-01T09:38:15.587Z,98319.66
2022-10-01T09:40:57.449Z,98322.56
2022-10-01T09:43:29.455Z,98320.47
2022-10-01T09:45:57.780Z,98329.75
2022-10-01T09:48:49.695Z,98335.66
2022-10-01T09:51:47.702Z,98332.78
2022-10-01T09:54:40.859Z,98353.03
2022-10-01T09:57:21.921Z,98355.84
2022-10-01T10:00:17.513Z,98358.81
2022-10-01T10:02:49.194Z,98368.91
2022-10-01T10:05:24.381Z,98361.97
2022-10-01T10:07:54.754Z,98367.94
2022-10-01T10:10:26.253Z,98368.69
2022-10-01T10:13:18.095Z,98378.97
2022-10-01T10:15:56.332Z,98373.94
2022-10-01T10:18:34.610Z,98367.03
2022-10-01T10:21:11.117Z,98369.63
2022-10-01T10:23:49.400Z,98377.84
2022-10-01T10:26:28.618Z,98374.78
2022-10-01T10:28:59.744Z,98378.03
2022-10-01T10:31:46.512Z,98371.38
2022-10-01T10:34:16.691Z,98375.91
2022-10-01T10:36:46.166Z,98368.31
2022-10-01T10:39:37.738Z,98363.88
2022-10-01T10:42:05.980Z,98386.44
2022-10-01T10:44:38.797Z,98376.47
2022-10-01T10:47:10.998Z,98376.47
2022-10-01T10:50:02.661Z,98390.16
2022-10-01T10:52:33.405Z,98369.97
2022-10-01T10:55:03.795Z,98376.38
2022-10-01T10:57:34.328Z,98377.28
2022-10-01T11:00:13.024Z,98385.69
2022-10-01T11:02:48.042Z,98387.09
2022-10-01T11:05:23.320Z,98379.38
2022-10-01T11:07:55.377Z,98377.88
2022-10-01T11:10:55.157Z,98382.31
2022-10-01T11:14:01.045Z,98389.63
2022-10-01T11:17:06.247Z,98397.50
2022-10-01T11:19:49.188Z,98390.69
2022-10-01T11:22:18.687Z,98396.53
2022-10-01T11:25:23.020Z,98396.97
2022-10-01T11:27:59.627Z,98387.69
2022-10-01T11:30:43.774Z,98403.84
2022-10-01T11:33:26.421Z,98409.06
2022-10-01T11:36:15.081Z,98422.28
2022-10-01T11:38:50.084Z,98409.47
2022-10-01T11:41:40.084Z,98428.91
2022-10-01T11:44:37.017Z,98414.63
2022-10-01T11:47:10.219Z,98409.94
2022-10-01T11:49:53.352Z,98410.50
2022-10-01T11:53:07.754Z,98409.53
2022-10-01T11:56:18.739Z,98412.66
2022-10-01T11:59:09.251Z,98432.13
2022-10-01T12:01:51.400Z,98418.88
2022-10-01T12:04:41.972Z,98414.13
2022-10-01T12:07:38.899Z,98413.97
2022-10-01T12:10:43.176Z,98403.56
2022-10-01T12:13:16.060Z,98411.91
2022-10-01T12:15:58.033Z,98414.41
2022-10-01T12:18:53.375Z,98407.63
2022-10-01T12:21:33.702Z,98399.78
2022-10-01T12:24:13.840Z,98405.97
2022-10-01T12:27:04.931Z,98416.19
2022-10-01T12:30:01.284Z,98403.56
2022-10-01T12:33:00.607Z,98398.75
2022-10-01T12:35:43.859Z,98390.75
2022-10-01T12:38:36.534Z,98402.56
2022-10-01T12:41:06.054Z,98415.63
2022-10-01T12:43:51.304Z,98409.44
2022-10-01T12:47:07.465Z,98391.84
2022-10-01T12:50:14.097Z,98387.09
2022-10-01T12:52:49.376Z,98387.72
2022-10-01T12:55:34.907Z,98391.06
2022-10-01T12:58:30.674Z,98383.59
2022-10-01T13:01:10.836Z,98408.25
2022-10-01T13:03:52.810Z,98399.38
2022-10-01T13:06:28.941Z,98403.72
2022-10-01T13:08:58.384Z,98409.75
2022-10-01T13:12:03.746Z,98418.44
2022-10-01T13:14:33.374Z,98414.31
2022-10-01T13:17:12.101Z,98400.22
2022-10-01T13:20:03.098Z,98415.13
2022-10-01T13:22:45.352Z,98409.97
2022-10-01T13:25:30.372Z,98425.28
2022-10-01T13:28:05.775Z,98421.31
2022-10-01T13:30:55.513Z,98411.00
2022-10-01T13:33:26.185Z,98422.00
2022-10-01T13:36:02.118Z,98437.53
2022-10-01T13:38:37.835Z,98422.41
2022-10-01T13:41:25.768Z,98427.38
2022-10-01T13:44:33.147Z,98434.84
2022-10-01T13:47:06.880Z,98440.44
2022-10-01T13:49:36.121Z,98430.28
2022-10-01T13:52:03.086Z,98442.50
2022-10-01T13:54:39.739Z,98437.75
2022-10-01T13:57:32.867Z,98447.09
2022-10-01T14:00:08.182Z,98452.47
2022-10-01T14:02:41.141Z,98452.03
2022-10-01T14:05:22.104Z,98452.88
2022-10-01T14:07:54.513Z,98442.34
2022-10-01T14:10:23.672Z,98448.75
2022-10-01T14:13:09.627Z,98444.19
2022-10-01T14:15:59.499Z,98463.72
2022-10-01T14:18:30.632Z,98457.69
2022-10-01T14:21:12.401Z,98465.38
2022-10-01T14:24:03.462Z,98469.72
2022-10-01T14:26:48.085Z,98474.47
2022-10-01T14:29:33.059Z,98469.09
2022-10-01T14:32:05.082Z,98456.88
2022-10-01T14:35:02.672Z,98464.75
2022-10-01T14:38:13.621Z,98475.13
2022-10-01T14:40:42.303Z,98485.69
2022-10-01T14:43:23.235Z,98475.75
2022-10-01T14:46:01.251Z,98481.31
2022-10-01T14:48:36.572Z,98496.50
2022-10-01T14:51:06.367Z,98504.19
2022-10-01T14:53:38.186Z,98487.38
2022-10-01T14:56:14.108Z,98491.09
2022-10-01T14:58:47.475Z,98488.81
2022-10-01T15:01:22.089Z,98489.84
2022-10-01T15:03:50.302Z,98487.38
2022-10-01T15:06:20.216Z,98478.09
2022-10-01T15:08:48.804Z,98478.50
2022-10-01T15:11:22.845Z,98470.41
2022-10-01T15:13:51.532Z,98475.38
2022-10-01T15:16:21.886Z,98478.72
2022-10-01T15:18:54.961Z,98487.44
2022-10-01T15:21:32.731Z,98486.19
2022-10-01T15:23:59.477Z,98489.91
2022-10-01T15:26:29.820Z,98491.16
2022-10-01T15:29:26.198Z,98475.44
2022-10-01T15:31:53.754Z,98479.97
2022-10-01T15:34:24.092Z,98477.09
2022-10-01T15:36:52.718Z,98480.38
2022-10-01T15:39:40.743Z,98489.72
2022-10-01T15:42:19.113Z,98490.97
2022-10-01T15:44:47.408Z,98496.38
2022-10-01T15:47:19.869Z,98503.66
2022-10-01T15:50:08.359Z,98513.63
2022-10-01T15:52:50.709Z,98502.47
2022-10-01T15:55:24.072Z,98501.56
2022-10-01T15:57:55.678Z,98505.31
2022-10-01T16:00:27.962Z,98500.94
2022-10-01T16:02:56.313Z,98505.31
2022-10-01T16:05:28.297Z,98504.31
2022-10-01T16:07:58.428Z,98500.81
2022-10-01T16:10:33.181Z,98505.59
2022-10-01T16:13:00.055Z,98517.63
2022-10-01T16:15:30.681Z,98517.81
2022-10-01T16:18:02.453Z,98534.22
2022-10-01T16:20:31.808Z,98529.03
2022-10-01T16:23:32.910Z,98518.47
2022-10-01T16:25:59.890Z,98545.22
2022-10-01T16:28:30.882Z,98530.50
2022-10-01T16:30:57.416Z,98527.34
2022-10-01T16:33:23.897Z,98541.50
2022-10-01T16:35:50.500Z,98546.66
2022-10-01T16:38:16.924Z,98539.00
2022-10-01T16:40:47.790Z,98525.72
2022-10-01T16:43:24.269Z,98541.91
2022-10-01T16:45:50.824Z,98549.19
2022-10-01T16:48:22.905Z,98541.09
2022-10-01T16:50:52.014Z,98541.50
2022-10-01T16:53:18.437Z,98552.94
2022-10-01T16:55:45.929Z,98555.41
2022-10-01T16:58:13.601Z,98556.88
2022-10-01T17:00:40.570Z,98557.91
2022-10-01T17:03:12.286Z,98571.78
2022-10-01T17:05:39.337Z,98564.75
2022-10-01T17:08:11.176Z,98564.72
2022-10-01T17:10:43.153Z,98583.00
2022-10-01T17:13:11.692Z,98586.72
2022-10-01T17:15:38.606Z,98592.31
2022-10-01T17:18:05.135Z,98586.69
2022-10-01T17:20:31.473Z,98590.22
2022-10-01T17:22:58.694Z,98594.38
2022-10-01T17:25:30.995Z,98587.53
2022-10-01T17:27:59.550Z,98597.47
2022-10-01T17:30:29.236Z,98604.53
2022-10-01T17:33:00.052Z,98608.69
2022-10-01T17:35:27.787Z,98608.31
2022-10-01T17:37:54.409Z,98630.91
2022-10-01T17:40:21.223Z,98639.41
2022-10-01T17:42:47.781Z,98650.19
2022-10-01T17:45:14.518Z,98660.19
2022-10-01T17:47:48.436Z,98651.69
2022-10-01T17:50:15.962Z,98662.47
2022-10-01T17:52:42.806Z,98660.56
2022-10-01T17:55:09.431Z,98662.25
2022-10-01T17:57:35.998Z,98672.41
2022-10-01T18:00:02.898Z,98677.56
2022-10-01T18:02:43.087Z,98684.47
2022-10-01T18:05:12.764Z,98684.47
2022-10-01T18:07:40.424Z,98693.59
2022-10-01T18:10:09.394Z,98690.47
2022-10-01T18:12:35.816Z,98686.06
2022-10-01T18:15:02.510Z,98690.03
2022-10-01T18:17:32.161Z,98700.88
2022-10-01T18:19:58.949Z,98710.81
2022-10-01T18:22:26.560Z,98705.00
2022-10-01T18:24:53.420Z,98712.88
2022-10-01T18:27:20.166Z,98710.38
2022-10-01T18:29:46.959Z,98712.88
2022-10-01T18:32:22.342Z,98720.16
2022-10-01T18:34:57.723Z,98722.84
2022-10-01T18:37:40.087Z,98722.63
2022-10-01T18:40:12.553Z,98727.47
2022-10-01T18:42:54.660Z,98728.03
2022-10-01T18:45:25.942Z,98723.44
2022-10-01T18:48:10.904Z,98738.41
2022-10-01T18:51:01.856Z,98734.44
2022-10-01T18:53:43.629Z,98751.50
2022-10-01T18:56:37.198Z,98752.06
2022-10-01T18:59:13.323Z,98755.06
2022-10-01T19:01:50.302Z,98758.34
2022-10-01T19:04:20.188Z,98771.41
2022-10-01T19:07:17.627Z,98773.06
2022-10-01T19:10:10.034Z,98773.66
2022-10-01T19:13:16.073Z,98782.81
2022-10-01T19:16:15.899Z,98777.94
2022-10-01T19:19:16.534Z,98794.31
2022-10-01T19:22:10.874Z,98802.22
2022-10-01T19:24:57.958Z,98802.84
2022-10-01T19:27:48.235Z,98817.75
2022-10-01T19:30:16.730Z,98820.44
2022-10-01T19:32:58.894Z,98826.78
2022-10-01T19:35:40.670Z,98828.41
2022-10-01T19:38:37.840Z,98835.91
2022-10-01T19:41:38.297Z,98834.00
2022-10-01T19:44:19.304Z,98828.38
2022-10-01T19:46:49.389Z,98837.91
2022-10-01T19:49:33.822Z,98839.56
2022-10-01T19:52:09.608Z,98840.78
2022-10-01T19:54:45.151Z,98840.75
2022-10-01T19:57:26.021Z,98858.59
2022-10-01T20:00:09.709Z,98870.03
2022-10-01T20:03:03.924Z,98874.72
2022-10-01T20:05:45.924Z,98870.59
2022-10-01T20:08:37.066Z,98869.56
2022-10-01T20:11:21.574Z,98869.81
2022-10-01T20:14:06.495Z,98873.22
2022-10-01T20:16:40.753Z,98870.94
2022-10-01T20:19:26.624Z,98871.34
2022-10-01T20:22:01.502Z,98872.28
2022-10-01T20:24:49.128Z,98882.66
2022-10-01T20:27:33.689Z,98887.91
2022-10-01T20:30:07.313Z,98889.53
2022-10-01T20:32:55.965Z,98888.25
2022-10-01T20:35:42.337Z,98880.00
2022-10-01T20:38:11.729Z,98879.91
2022-10-01T20:40:49.391Z,98883.25
2022-10-01T20:43:33.473Z,98880.00
2022-10-01T20:46:10.786Z,98887.84
2022-10-01T20:48:41.912Z,98876.25
2022-10-01T20:51:19.750Z,98870.16
2022-10-01T20:54:02.981Z,98872.06
2022-10-01T20:56:56.421Z,98880.38
2022-10-01T20:59:39.812Z,98877.06
2022-10-01T21:02:32.384Z,98885.84
2022-10-01T21:05:11.684Z,98892.63
2022-10-01T21:07:46.188Z,98895.38
2022-10-01T21:10:39.597Z,98897.84
2022-10-01T21:13:15.273Z,98902.38
2022-10-01T21:16:08.725Z,98910.09
2022-10-01T21:18:48.342Z,98935.16
2022-10-01T21:21:36.807Z,98933.16
2022-10-01T21:24:32.986Z,98935.78
2022-10-01T21:27:05.602Z,98938.78
2022-10-01T21:29:38.373Z,98932.56
2022-10-01T21:32:49.426Z,98930.69
2022-10-01T21:35:40.523Z,98936.06
2022-10-01T21:38:29.586Z,98940.34
2022-10-01T21:41:53.830Z,98928.59
2022-10-01T21:44:39.165Z,98931.47
2022-10-01T21:47:17.139Z,98942.34
2022-10-01T21:50:15.249Z,98947.66
2022-10-01T21:52:53.347Z,98950.47
2022-10-01T21:55:45.194Z,98952.66
2022-10-01T21:58:31.386Z,98953.34
2022-10-01T22:01:41.237Z,98957.59
2022-10-01T22:04:35.429Z,98954.09
2022-10-01T22:07:11.883Z,98956.03
2022-10-01T22:09:46.992Z,98959.50
2022-10-01T22:12:14.736Z,98961.56
2022-10-01T22:14:42.709Z,98966.69
2022-10-01T22:17:15.863Z,98967.81
2022-10-01T22:19:50.836Z,98964.22
2022-10-01T22:22:31.282Z,98964.94
2022-10-01T22:25:00.558Z,98970.13
2022-10-01T22:27:33.292Z,98968.75
2022-10-01T22:30:12.384Z,98973.59
2022-10-01T22:33:17.085Z,98979.00
2022-10-01T22:35:52.895Z,98984.78
2022-10-01T22:38:29.615Z,98985.75
2022-10-01T22:41:16.935Z,98996.47
2022-10-01T22:43:45.618Z,98992.91
2022-10-01T22:46:37.238Z,99000.34
2022-10-01T22:49:15.773Z,99000.34
2022-10-01T22:51:50.738Z,99007.13
2022-10-01T22:54:21.526Z,99017.59
2022-10-01T22:57:04.805Z,99012.41
2022-10-01T23:00:04.091Z,99026.44
2022-10-01T23:02:41.333Z,99019.75
2022-10-01T23:05:39.186Z,99023.56
2022-10-01T23:08:28.981Z,99015.75
2022-10-01T23:11:10.139Z,99016.00
2022-10-01T23:13:56.672Z,99017.41
2022-10-01T23:16:23.183Z,99031.72
2022-10-01T23:18:49.593Z,99034.25
2022-10-01T23:21:25.510Z,99027.91
2022-10-01T23:24:27.561Z,99016.31
2022-10-01T23:27:27.799Z,99018.63
2022-10-01T23:30:07.231Z,99025.69
2022-10-01T23:33:13.944Z,99024.66
2022-10-01T23:35:46.714Z,99037.00
2022-10-01T23:38:28.721Z,99026.59
2022-10-01T23:40:57.877Z,99030.38
2022-10-01T23:43:33.280Z,99037.50
2022-10-01T23:46:15.877Z,99039.34
2022-10-01T23:49:10.444Z,99052.72
2022-10-01T23:51:56.418Z,99050.91
2022-10-01T23:54:46.162Z,99057.63
2022-10-01T23:57:35.291Z,99060.38
